createdAt,value
2017-07-12T00:00:42.947Z,1026.62
2017-07-12T00:01:42.946Z,1026.63
2017-07-12T00:02:42.943Z,1026.6
2017-07-12T00:03:42.938Z,1026.63
2017-07-12T00:04:42.937Z,1026.59
2017-07-12T00:05:42.936Z,1026.59
2017-07-12T00:06:42.929Z,1026.55
2017-07-12T00:07:42.928Z,1026.53
2017-07-12T00:08:42.922Z,1026.48
2017-07-12T00:09:42.921Z,1026.5
2017-07-12T00:10:42.918Z,1026.48
2017-07-12T00:11:42.915Z,1026.44
2017-07-12T00:12:42.913Z,1026.48
2017-07-12T00:13:42.908Z,1026.43
2017-07-12T00:14:42.902Z,1026.42
2017-07-12T00:15:42.901Z,1026.41
2017-07-12T00:16:42.901Z,1026.41
2017-07-12T00:17:42.893Z,1026.39
2017-07-12T00:18:42.891Z,1026.41
2017-07-12T00:19:42.892Z,1026.37
2017-07-12T00:20:42.883Z,1026.34
2017-07-12T00:21:42.884Z,1026.4
2017-07-12T00:22:42.879Z,1026.42
2017-07-12T00:23:42.875Z,1026.42
2017-07-12T00:24:42.871Z,1026.4
2017-07-12T00:25:42.872Z,1026.39
2017-07-12T00:26:42.869Z,1026.4
2017-07-12T00:27:42.867Z,1026.37
2017-07-12T00:28:42.860Z,1026.35
2017-07-12T00:29:42.855Z,1026.4
2017-07-12T00:30:42.855Z,1026.43
2017-07-12T00:31:42.855Z,1026.46
2017-07-12T00:32:42.848Z,1026.53
2017-07-12T00:33:42.846Z,1026.57
2017-07-12T00:34:42.839Z,1026.6
2017-07-12T00:35:42.840Z,1026.64
2017-07-12T00:36:42.837Z,1026.66
2017-07-12T00:37:42.834Z,1026.65
2017-07-12T00:38:42.830Z,1026.68
2017-07-12T00:39:42.827Z,1026.66
2017-07-12T00:40:42.823Z,1026.7
2017-07-12T00:41:42.820Z,1026.67
2017-07-12T00:42:42.817Z,1026.7
2017-07-12T00:43:42.814Z,1026.7
2017-07-12T00:44:42.810Z,1026.71
2017-07-12T00:45:42.810Z,1026.76
2017-07-12T00:46:42.804Z,1026.79
2017-07-12T00:47:42.805Z,1026.83
2017-07-12T00:48:42.797Z,1026.79
2017-07-12T00:49:42.793Z,1026.81
2017-07-12T00:50:42.787Z,1026.87
2017-07-12T00:51:42.790Z,1026.83
2017-07-12T00:52:42.784Z,1026.86
2017-07-12T00:53:42.781Z,1026.82
2017-07-12T00:54:42.778Z,1026.82
2017-07-12T00:55:42.775Z,1026.85
2017-07-12T00:56:42.767Z,1026.87
2017-07-12T00:57:42.765Z,1026.94
2017-07-12T00:58:42.762Z,1026.95
2017-07-12T00:59:42.761Z,1026.94
2017-07-12T01:00:42.756Z,1027.03
2017-07-12T01:01:42.751Z,1026.99
2017-07-12T01:02:42.748Z,1026.99
2017-07-12T01:03:42.742Z,1027.03
2017-07-12T01:04:42.744Z,1027.05
2017-07-12T01:05:42.739Z,1027.07
2017-07-12T01:06:42.737Z,1027.08
2017-07-12T01:07:42.728Z,1027.08
2017-07-12T01:08:42.726Z,1027.06
2017-07-12T01:09:42.722Z,1027.07
2017-07-12T01:10:42.717Z,1027.06
2017-07-12T01:11:42.714Z,1027.05
2017-07-12T01:12:42.710Z,1027.05
2017-07-12T01:13:42.709Z,1027.07
2017-07-12T01:14:42.702Z,1027.05
2017-07-12T01:15:42.703Z,1027.06
2017-07-12T01:16:42.698Z,1027.09
2017-07-12T01:17:42.691Z,1027.12
2017-07-12T01:18:42.685Z,1027.13
2017-07-12T01:19:42.685Z,1027.12
2017-07-12T01:20:42.682Z,1027.11
2017-07-12T01:21:42.678Z,1027.11
2017-07-12T01:22:42.672Z,1027.08
2017-07-12T01:23:42.919Z,1027.12
2017-07-12T01:24:42.667Z,1027.09
2017-07-12T01:25:42.662Z,1027.14
2017-07-12T01:26:42.661Z,1027.11
2017-07-12T01:27:42.654Z,1027.15
2017-07-12T01:28:42.651Z,1027.16
2017-07-12T01:29:42.645Z,1027.1
2017-07-12T01:30:42.641Z,1027.09
2017-07-12T01:31:42.635Z,1027.06
2017-07-12T01:32:42.635Z,1027.05
2017-07-12T01:33:42.632Z,1027.03
2017-07-12T01:34:42.633Z,1027.03
2017-07-12T01:35:42.621Z,1026.99
2017-07-12T01:36:42.620Z,1026.99
2017-07-12T01:37:42.611Z,1027.02
2017-07-12T01:38:42.610Z,1027.03
2017-07-12T01:39:42.606Z,1027.07
2017-07-12T01:40:42.605Z,1027.08
2017-07-12T01:41:42.599Z,1027.1
2017-07-12T01:42:42.595Z,1027.07
2017-07-12T01:43:42.588Z,1027.09
2017-07-12T01:44:42.584Z,1027.11
2017-07-12T01:45:42.580Z,1027.11
2017-07-12T01:46:42.579Z,1027.08
2017-07-12T01:47:42.570Z,1027.09
2017-07-12T01:48:42.566Z,1027.06
2017-07-12T01:49:42.566Z,1027.13
2017-07-12T01:50:42.562Z,1027.08
2017-07-12T01:51:42.557Z,1027.13
2017-07-12T01:52:42.553Z,1027.06
2017-07-12T01:53:42.549Z,1027.07
2017-07-12T01:54:42.541Z,1027.12
2017-07-12T01:55:42.540Z,1027.07
2017-07-12T01:56:42.532Z,1027.07
2017-07-12T01:57:42.531Z,1027.04
2017-07-12T01:58:42.525Z,1027.03
2017-07-12T01:59:42.521Z,1026.98
2017-07-12T02:00:42.519Z,1027
2017-07-12T02:01:42.517Z,1027.03
2017-07-12T02:02:42.510Z,1026.98
2017-07-12T02:03:42.506Z,1026.99
2017-07-12T02:04:42.498Z,1027.01
2017-07-12T02:05:42.495Z,1027.01
2017-07-12T02:06:42.491Z,1026.97
2017-07-12T02:07:42.488Z,1026.96
2017-07-12T02:08:42.485Z,1026.99
2017-07-12T02:09:42.480Z,1026.94
2017-07-12T02:10:42.476Z,1026.95
2017-07-12T02:11:42.472Z,1026.93
2017-07-12T02:12:42.463Z,1026.93
2017-07-12T02:13:42.461Z,1026.92
2017-07-12T02:14:42.455Z,1026.95
2017-07-12T02:15:42.455Z,1026.91
2017-07-12T02:16:42.449Z,1026.9
2017-07-12T02:17:42.445Z,1026.91
2017-07-12T02:18:42.439Z,1026.89
2017-07-12T02:19:42.439Z,1026.86
2017-07-12T02:20:42.434Z,1026.89
2017-07-12T02:21:42.426Z,1026.88
2017-07-12T02:22:42.421Z,1026.89
2017-07-12T02:23:42.418Z,1026.91
2017-07-12T02:24:42.416Z,1026.88
2017-07-12T02:25:42.408Z,1026.89
2017-07-12T02:26:42.406Z,1026.9
2017-07-12T02:27:42.401Z,1026.91
2017-07-12T02:28:42.395Z,1026.92
2017-07-12T02:29:42.391Z,1026.92
2017-07-12T02:30:42.389Z,1026.88
2017-07-12T02:31:42.384Z,1026.89
2017-07-12T02:32:42.376Z,1026.88
2017-07-12T02:33:42.373Z,1026.88
2017-07-12T02:34:42.374Z,1026.91
2017-07-12T02:35:42.375Z,1026.88
2017-07-12T02:36:42.361Z,1026.91
2017-07-12T02:37:42.355Z,1026.86
2017-07-12T02:38:42.351Z,1026.89
2017-07-12T02:39:42.348Z,1026.93
2017-07-12T02:40:42.344Z,1026.94
2017-07-12T02:41:42.337Z,1026.93
2017-07-12T02:42:42.333Z,1026.95
2017-07-12T02:43:42.326Z,1026.97
2017-07-12T02:44:42.328Z,1026.96
2017-07-12T02:45:42.320Z,1026.96
2017-07-12T02:46:42.317Z,1026.97
2017-07-12T02:48:42.309Z,1026.95
2017-07-12T02:49:42.305Z,1026.92
2017-07-12T02:50:42.299Z,1026.9
2017-07-12T02:51:42.295Z,1026.89
2017-07-12T02:52:42.293Z,1026.86
2017-07-12T02:53:42.287Z,1026.87
2017-07-12T02:54:42.279Z,1026.9
2017-07-12T02:55:42.273Z,1026.91
2017-07-12T02:56:42.273Z,1026.88
2017-07-12T02:57:42.267Z,1026.9
2017-07-12T02:58:42.263Z,1026.87
2017-07-12T02:59:42.255Z,1026.9
2017-07-12T03:00:42.255Z,1026.88
2017-07-12T03:01:42.247Z,1026.89
2017-07-12T03:02:42.241Z,1026.84
2017-07-12T03:03:42.238Z,1026.83
2017-07-12T03:04:42.233Z,1026.82
2017-07-12T03:05:42.231Z,1026.79
2017-07-12T03:06:42.222Z,1026.79
2017-07-12T03:07:42.220Z,1026.8
2017-07-12T03:08:42.214Z,1026.79
2017-07-12T03:09:42.216Z,1026.77
2017-07-12T03:10:42.209Z,1026.76
2017-07-12T03:11:42.204Z,1026.82
2017-07-12T03:12:42.200Z,1026.78
2017-07-12T03:13:42.195Z,1026.75
2017-07-12T03:14:42.190Z,1026.72
2017-07-12T03:15:42.186Z,1026.71
2017-07-12T03:16:42.178Z,1026.69
2017-07-12T03:17:42.177Z,1026.63
2017-07-12T03:18:42.172Z,1026.65
2017-07-12T03:19:42.165Z,1026.61
2017-07-12T03:20:42.166Z,1026.59
2017-07-12T03:21:42.157Z,1026.57
2017-07-12T03:22:42.152Z,1026.48
2017-07-12T03:23:42.149Z,1026.52
2017-07-12T03:24:42.144Z,1026.5
2017-07-12T03:25:42.142Z,1026.5
2017-07-12T03:26:42.133Z,1026.45
2017-07-12T03:27:42.132Z,1026.48
2017-07-12T03:28:42.128Z,1026.48
2017-07-12T03:29:42.121Z,1026.46
2017-07-12T03:30:42.117Z,1026.43
2017-07-12T03:31:42.114Z,1026.41
2017-07-12T03:32:42.110Z,1026.41
2017-07-12T03:33:42.106Z,1026.34
2017-07-12T03:34:42.100Z,1026.29
2017-07-12T03:35:42.096Z,1026.24
2017-07-12T03:36:42.089Z,1026.14
2017-07-12T03:37:42.085Z,1026.04
2017-07-12T03:38:42.084Z,1025.94
2017-07-12T03:39:42.084Z,1025.83
2017-07-12T03:40:42.077Z,1025.74
2017-07-12T03:41:42.068Z,1025.68
2017-07-12T03:42:42.067Z,1025.53
2017-07-12T03:43:42.065Z,1025.44
2017-07-12T03:44:42.059Z,1025.42
2017-07-12T03:45:42.056Z,1025.31
2017-07-12T03:46:42.052Z,1025.2
2017-07-12T03:47:42.050Z,1025.13
2017-07-12T03:48:42.041Z,1024.96
2017-07-12T03:49:42.040Z,1024.84
2017-07-12T03:50:42.038Z,1024.69
2017-07-12T03:51:42.033Z,1024.63
2017-07-12T03:52:42.029Z,1024.5
2017-07-12T03:53:42.028Z,1024.39
2017-07-12T03:54:42.025Z,1024.26
2017-07-12T03:55:42.021Z,1024.2
2017-07-12T03:56:42.022Z,1024.1
2017-07-12T03:57:42.019Z,1023.97
2017-07-12T03:58:42.013Z,1023.88
2017-07-12T03:59:42.011Z,1023.78
2017-07-12T04:00:42.005Z,1023.73
2017-07-12T04:01:42.005Z,1023.59
2017-07-12T04:02:42.000Z,1023.52
2017-07-12T04:03:42.003Z,1023.37
2017-07-12T04:04:41.997Z,1023.24
2017-07-12T04:05:42.002Z,1023.19
2017-07-12T04:06:41.999Z,1023.14
2017-07-12T04:07:41.999Z,1023.05
2017-07-12T04:08:41.995Z,1022.96
2017-07-12T04:09:41.994Z,1022.81
2017-07-12T04:10:41.990Z,1022.81
2017-07-12T04:11:41.988Z,1022.72
2017-07-12T04:12:41.987Z,1022.59
2017-07-12T04:13:41.992Z,1022.54
2017-07-12T04:14:41.990Z,1022.42
2017-07-12T04:15:41.992Z,1022.34
2017-07-12T04:16:41.990Z,1022.24
2017-07-12T04:17:41.990Z,1022.07
2017-07-12T04:18:41.988Z,1021.99
2017-07-12T04:19:41.991Z,1021.9
2017-07-12T04:20:41.987Z,1021.82
2017-07-12T04:21:41.992Z,1021.71
2017-07-12T04:22:41.991Z,1021.67
2017-07-12T04:23:41.994Z,1021.59
2017-07-12T04:24:41.993Z,1021.5
2017-07-12T04:25:41.996Z,1021.42
2017-07-12T04:26:41.998Z,1021.37
2017-07-12T04:27:42.000Z,1021.26
2017-07-12T04:28:42.004Z,1021.22
2017-07-12T04:29:42.003Z,1021.09
2017-07-12T04:30:42.008Z,1020.95
2017-07-12T04:31:42.009Z,1020.89
2017-07-12T04:32:42.012Z,1020.83
2017-07-12T04:33:42.018Z,1020.72
2017-07-12T04:34:42.022Z,1020.67
2017-07-12T04:35:42.024Z,1020.57
2017-07-12T04:36:42.023Z,1020.49
2017-07-12T04:37:42.029Z,1020.42
2017-07-12T04:38:42.035Z,1020.36
2017-07-12T04:39:42.037Z,1020.32
2017-07-12T04:40:42.040Z,1020.23
2017-07-12T04:41:42.046Z,1020.19
2017-07-12T04:42:42.053Z,1020.11
2017-07-12T04:43:42.061Z,1020.05
2017-07-12T04:44:42.065Z,1020.01
2017-07-12T04:45:42.068Z,1019.93
2017-07-12T04:46:42.075Z,1019.87
2017-07-12T04:47:42.078Z,1019.82
2017-07-12T04:48:42.087Z,1019.81
2017-07-12T04:49:42.091Z,1019.72
2017-07-12T04:50:42.100Z,1019.67
2017-07-12T04:51:42.102Z,1019.6
2017-07-12T04:52:42.113Z,1019.53
2017-07-12T04:53:42.115Z,1019.43
2017-07-12T04:54:42.126Z,1019.39
2017-07-12T04:55:42.130Z,1019.31
2017-07-12T04:56:42.143Z,1019.16
2017-07-12T04:57:42.145Z,1019.08
2017-07-12T04:58:42.151Z,1018.88
2017-07-12T04:59:42.162Z,1018.8
2017-07-12T05:00:42.171Z,1018.68
2017-07-12T05:01:42.178Z,1018.63
2017-07-12T05:02:42.190Z,1018.59
2017-07-12T05:03:42.192Z,1018.51
2017-07-12T05:04:42.206Z,1018.41
2017-07-12T05:05:42.212Z,1018.31
2017-07-12T05:06:42.219Z,1018.26
2017-07-12T05:07:42.229Z,1018.13
2017-07-12T05:08:42.238Z,1017.88
2017-07-12T05:09:42.249Z,1017.91
2017-07-12T05:10:42.258Z,1018.2
2017-07-12T05:11:42.265Z,1018.47
2017-07-12T05:12:42.279Z,1018.66
2017-07-12T05:13:42.287Z,1018.88
2017-07-12T05:14:42.297Z,1019.14
2017-07-12T05:15:42.306Z,1019.36
2017-07-12T05:16:42.312Z,1019.62
2017-07-12T05:17:42.328Z,1019.81
2017-07-12T05:18:42.335Z,1019.93
2017-07-12T05:19:42.347Z,1020.08
2017-07-12T05:20:42.349Z,1020.2
2017-07-12T05:21:42.367Z,1020.35
2017-07-12T05:22:42.371Z,1020.44
2017-07-12T05:23:42.380Z,1020.52
2017-07-12T05:24:42.385Z,1020.63
2017-07-12T05:25:42.395Z,1020.7
2017-07-12T05:26:42.401Z,1020.76
2017-07-12T05:27:42.412Z,1020.86
2017-07-12T05:28:42.422Z,1020.91
2017-07-12T05:29:42.430Z,1020.99
2017-07-12T05:30:42.434Z,1021.01
2017-07-12T05:31:42.445Z,1021.02
2017-07-12T05:32:42.452Z,1021.1
2017-07-12T05:33:42.461Z,1021.06
2017-07-12T05:34:42.463Z,1021.09
2017-07-12T05:35:42.473Z,1021.03
2017-07-12T05:36:42.513Z,1021.06
2017-07-12T05:37:42.493Z,1020.9
2017-07-12T05:38:42.493Z,1020.89
2017-07-12T05:39:42.501Z,1020.95
2017-07-12T05:40:42.509Z,1020.97
2017-07-12T05:41:42.516Z,1020.79
2017-07-12T05:42:42.522Z,1020.69
2017-07-12T05:43:42.528Z,1020.71
2017-07-12T05:44:42.540Z,1020.71
2017-07-12T05:45:42.542Z,1020.61
2017-07-12T05:46:42.552Z,1020.49
2017-07-12T05:47:42.554Z,1020.7
2017-07-12T05:48:42.564Z,1020.19
2017-07-12T05:49:42.571Z,1020.15
2017-07-12T05:50:42.576Z,1020.18
2017-07-12T05:51:42.585Z,1019.98
2017-07-12T05:52:42.591Z,1020.4
2017-07-12T05:53:42.595Z,1019.49
2017-07-12T05:54:42.607Z,1019.31
2017-07-12T05:55:42.613Z,1019.39
2017-07-12T05:56:42.621Z,1019.39
2017-07-12T05:57:42.627Z,1019.35
2017-07-12T05:58:42.633Z,1019.4
2017-07-12T05:59:42.697Z,1019.39
2017-07-12T06:00:42.653Z,1019.48
2017-07-12T06:01:42.660Z,1019.6
2017-07-12T06:02:42.665Z,1020.45
2017-07-12T06:03:42.670Z,1019.37
2017-07-12T06:04:42.682Z,1019.82
2017-07-12T06:05:42.690Z,1019.51
2017-07-12T06:06:42.697Z,1018.94
2017-07-12T06:07:42.707Z,1018.54
2017-07-12T06:08:42.711Z,1018.04
2017-07-12T06:09:42.728Z,1017.63
2017-07-12T06:10:42.733Z,1017.34
2017-07-12T06:11:42.744Z,1017.07
2017-07-12T06:12:42.749Z,1016.81
2017-07-12T06:13:42.763Z,1016.7
2017-07-12T06:14:42.771Z,1016.82
2017-07-12T06:15:42.783Z,1016.58
2017-07-12T06:16:42.794Z,1016.67
2017-07-12T06:17:42.806Z,1017.05
2017-07-12T06:18:42.817Z,1017.46
2017-07-12T06:19:42.829Z,1017.78
2017-07-12T06:20:42.841Z,1018.02
2017-07-12T06:21:42.851Z,1018.33
2017-07-12T06:22:42.859Z,1018.59
2017-07-12T06:23:42.874Z,1018.83
2017-07-12T06:24:42.880Z,1019.05
2017-07-12T06:25:42.894Z,1019.17
2017-07-12T06:26:42.903Z,1019.35
2017-07-12T06:27:42.917Z,1019.48
2017-07-12T06:28:42.925Z,1019.62
2017-07-12T06:29:42.937Z,1019.76
2017-07-12T06:30:42.947Z,1019.84
2017-07-12T06:31:42.956Z,1019.89
2017-07-12T06:32:42.964Z,1019.92
2017-07-12T06:33:42.970Z,1020
2017-07-12T06:34:42.982Z,1020.01
2017-07-12T06:35:42.991Z,1020.02
2017-07-12T06:36:43.001Z,1019.98
2017-07-12T06:37:43.010Z,1020
2017-07-12T06:38:43.021Z,1020.01
2017-07-12T06:39:43.027Z,1019.98
2017-07-12T06:40:43.038Z,1019.98
2017-07-12T06:41:43.043Z,1019.96
2017-07-12T06:42:43.053Z,1019.76
2017-07-12T06:43:43.061Z,1019.46
2017-07-12T06:44:43.066Z,1019.2
2017-07-12T06:45:43.078Z,1019.22
2017-07-12T06:46:43.087Z,1019.31
2017-07-12T06:47:43.094Z,1019.43
2017-07-12T06:48:43.103Z,1019.53
2017-07-12T06:49:43.111Z,1019.68
2017-07-12T06:50:43.118Z,1019.85
2017-07-12T06:51:43.128Z,1019.99
2017-07-12T06:52:43.134Z,1020.03
2017-07-12T06:53:43.142Z,1020.12
2017-07-12T06:54:43.153Z,1020.17
2017-07-12T06:55:43.222Z,1020.18
2017-07-12T06:56:43.166Z,1020.26
2017-07-12T06:57:43.172Z,1020.28
2017-07-12T06:58:43.183Z,1020.24
2017-07-12T06:59:43.189Z,1020.04
2017-07-12T07:00:43.200Z,1019.53
2017-07-12T07:01:43.204Z,1019.79
2017-07-12T07:02:43.214Z,1018.71
2017-07-12T07:03:43.218Z,1017.61
2017-07-12T07:04:43.228Z,1017.23
2017-07-12T07:05:43.238Z,1016.9
2017-07-12T07:06:43.249Z,1017.24
2017-07-12T07:07:43.255Z,1017.4
2017-07-12T07:08:43.266Z,1017.34
2017-07-12T07:09:43.272Z,1017.49
2017-07-12T07:10:43.281Z,1017.59
2017-07-12T07:11:43.290Z,1017.71
2017-07-12T07:12:43.298Z,1017.82
2017-07-12T07:13:43.307Z,1017.87
2017-07-12T07:14:43.383Z,1017.99
2017-07-12T07:15:43.326Z,1018.08
2017-07-12T07:16:43.337Z,1017.66
2017-07-12T07:17:43.343Z,1017.56
2017-07-12T07:18:43.355Z,1017.61
2017-07-12T07:19:43.365Z,1017.5
2017-07-12T07:20:43.378Z,1017.72
2017-07-12T07:21:43.382Z,1017.32
2017-07-12T07:22:43.396Z,1016.85
2017-07-12T07:23:43.405Z,1016.14
2017-07-12T07:24:43.414Z,1015.64
2017-07-12T07:25:43.424Z,1015.14
2017-07-12T07:26:43.440Z,1014.84
2017-07-12T07:27:43.446Z,1014.74
2017-07-12T07:28:43.463Z,1014.48
2017-07-12T07:29:43.472Z,1014.22
2017-07-12T07:30:43.487Z,1014.16
2017-07-12T07:31:43.499Z,1013.84
2017-07-12T07:32:43.511Z,1014.1
2017-07-12T07:33:43.525Z,1014.01
2017-07-12T07:34:43.542Z,1014.24
2017-07-12T08:46:44.522Z,1018.72
2017-07-12T08:47:44.532Z,1018.88
2017-07-12T08:48:44.544Z,1019.06
2017-07-12T08:49:44.554Z,1019.07
2017-07-12T08:50:44.566Z,1019.1
2017-07-12T08:51:44.577Z,1019.14
2017-07-12T08:52:44.588Z,1019.17
2017-07-12T08:53:44.595Z,1019.09
2017-07-12T08:54:44.607Z,1019.04
2017-07-12T08:55:44.615Z,1019.04
2017-07-12T08:56:44.627Z,1019.01
2017-07-12T08:57:44.639Z,1019
2017-07-12T08:58:44.645Z,1018.99
2017-07-12T08:59:44.657Z,1018.92
2017-07-12T09:00:44.664Z,1018.89
2017-07-12T09:01:44.675Z,1018.85
2017-07-12T09:02:44.683Z,1018.87
2017-07-12T09:03:44.746Z,1018.84
2017-07-12T09:04:44.703Z,1018.81
2017-07-12T09:05:44.718Z,1018.85
2017-07-12T09:06:44.724Z,1018.89
2017-07-12T09:07:44.738Z,1018.83
2017-07-12T09:08:44.741Z,1018.84
2017-07-12T09:09:44.754Z,1018.89
2017-07-12T09:10:44.763Z,1019.04
2017-07-12T09:11:44.773Z,1019.06
2017-07-12T09:12:44.785Z,1019.09
2017-07-12T09:13:44.792Z,1019.08
2017-07-12T09:14:44.797Z,1019.07
2017-07-12T09:15:44.811Z,1019.05
2017-07-12T09:16:44.817Z,1019.07
2017-07-12T09:17:44.829Z,1019.11
2017-07-12T09:18:44.836Z,1019.08
2017-07-12T09:19:44.849Z,1019.03
2017-07-12T09:20:44.855Z,1019.02
2017-07-12T09:21:44.867Z,1018.87
2017-07-12T09:22:44.870Z,1018.8
2017-07-12T09:23:44.883Z,1018.72
2017-07-12T09:33:44.974Z,1018.84
2017-07-12T09:34:44.982Z,1018.78
2017-07-12T09:35:44.990Z,1018.79
2017-07-12T09:36:44.999Z,1018.75
2017-07-12T09:37:45.009Z,1018.82
2017-07-12T09:38:45.017Z,1018.88
2017-07-12T09:39:45.025Z,1018.86
2017-07-12T09:40:45.032Z,1018.9
2017-07-12T09:41:45.043Z,1018.91
2017-07-12T09:42:45.050Z,1018.86
2017-07-12T09:43:45.058Z,1018.85
2017-07-12T09:44:45.070Z,1018.85
2017-07-12T09:45:45.076Z,1018.67
2017-07-12T09:46:45.088Z,1018.6
2017-07-12T09:47:45.092Z,1018.53
2017-07-12T09:48:45.103Z,1018.43
2017-07-12T09:49:45.108Z,1018.37
2017-07-12T09:50:45.122Z,1018.27
2017-07-12T09:51:45.129Z,1018.25
2017-07-12T09:52:45.138Z,1018.26
2017-07-12T09:53:45.142Z,1018.24
2017-07-12T09:54:45.154Z,1018.31
2017-07-12T09:55:45.163Z,1018.2
2017-07-12T09:56:45.172Z,1018.16
2017-07-12T09:57:45.181Z,1018.13
2017-07-12T09:58:45.191Z,1018.26
2017-07-12T09:59:45.202Z,1018.26
2017-07-12T10:00:45.211Z,1018.32
2017-07-12T10:01:45.218Z,1018.3
2017-07-12T10:02:45.227Z,1018.33
2017-07-12T10:03:45.235Z,1018.33
2017-07-12T10:04:45.242Z,1018.37
2017-07-12T10:05:45.249Z,1018.38
2017-07-12T10:06:45.263Z,1018.4
2017-07-12T10:07:45.268Z,1018.48
2017-07-12T10:08:45.281Z,1018.43
2017-07-12T10:09:45.290Z,1018.61
2017-07-12T10:10:45.297Z,1018.6
2017-07-12T10:11:45.306Z,1018.69
2017-07-12T10:12:45.312Z,1018.68
2017-07-12T10:13:45.321Z,1018.71
2017-07-12T10:14:45.332Z,1018.82
2017-07-12T10:15:45.362Z,1018.98
2017-07-12T10:16:45.351Z,1019.12
2017-07-12T10:17:45.357Z,1019.23
2017-07-12T10:18:45.365Z,1019.41
2017-07-12T10:19:45.374Z,1019.51
2017-07-12T10:20:45.378Z,1019.68
2017-07-12T10:21:45.391Z,1019.73
2017-07-12T10:22:45.398Z,1019.82
2017-07-12T10:23:45.406Z,1019.87
2017-07-12T10:24:45.415Z,1019.95
2017-07-12T10:25:45.422Z,1019.81
2017-07-12T10:26:45.428Z,1019.84
2017-07-12T10:27:45.437Z,1019.81
2017-07-12T10:28:45.446Z,1019.77
2017-07-12T10:29:45.452Z,1019.77
2017-07-12T10:30:45.460Z,1019.8
2017-07-12T10:31:45.470Z,1019.9
2017-07-12T10:32:45.478Z,1019.98
2017-07-12T10:33:45.484Z,1020.05
2017-07-12T10:34:45.488Z,1020.11
2017-07-12T10:35:45.500Z,1020.16
2017-07-12T10:36:45.500Z,1020.29
2017-07-12T10:37:45.511Z,1020.38
2017-07-12T10:38:45.516Z,1020.43
2017-07-12T10:39:45.527Z,1020.53
2017-07-12T10:40:45.529Z,1020.58
2017-07-12T10:41:45.538Z,1020.67
2017-07-12T10:42:45.545Z,1020.66
2017-07-12T10:43:45.549Z,1020.67
2017-07-12T10:44:45.555Z,1020.69
2017-07-12T10:45:45.566Z,1020.65
2017-07-12T10:46:45.572Z,1020.66
2017-07-12T10:47:45.574Z,1020.67
2017-07-12T10:48:45.581Z,1020.57
2017-07-12T10:49:45.588Z,1020.51
2017-07-12T10:50:45.596Z,1020.4
2017-07-12T10:51:45.603Z,1020.29
2017-07-12T10:52:45.605Z,1020.22
2017-07-12T10:53:45.616Z,1020.11
2017-07-12T10:54:45.616Z,1020.03
2017-07-12T10:55:45.626Z,1019.9
2017-07-12T10:56:45.627Z,1019.72
2017-07-12T10:57:45.639Z,1019.6
2017-07-12T10:58:45.645Z,1019.46
2017-07-12T10:59:45.650Z,1019.26
2017-07-12T11:00:45.656Z,1019.2
2017-07-12T11:01:45.662Z,1019.06
2017-07-12T11:02:45.667Z,1019.04
2017-07-12T11:03:45.674Z,1019.07
2017-07-12T11:04:45.681Z,1019.12
2017-07-12T11:05:45.691Z,1019.1
2017-07-12T11:06:45.694Z,1019.19
2017-07-12T11:07:45.699Z,1019.22
2017-07-12T11:08:45.706Z,1019.31
2017-07-12T11:09:45.710Z,1019.34
2017-07-12T11:10:45.720Z,1019.47
2017-07-12T11:11:45.725Z,1019.61
2017-07-12T11:12:45.735Z,1019.61
2017-07-12T11:13:45.739Z,1019.67
2017-07-12T11:14:45.746Z,1019.71
2017-07-12T11:15:45.752Z,1019.74
2017-07-12T11:16:45.759Z,1019.8
2017-07-12T11:17:45.761Z,1019.75
2017-07-12T11:18:45.772Z,1019.72
2017-07-12T11:19:45.777Z,1019.71
2017-07-12T11:20:45.783Z,1019.68
2017-07-12T11:21:45.787Z,1019.62
2017-07-12T11:22:45.793Z,1019.66
2017-07-12T11:23:45.800Z,1019.67
2017-07-12T11:24:45.806Z,1019.66
2017-07-12T11:25:45.809Z,1019.62
2017-07-12T11:26:45.819Z,1019.61
2017-07-12T11:27:45.826Z,1019.65
2017-07-12T11:28:45.831Z,1019.74
2017-07-12T11:29:45.835Z,1019.74
2017-07-12T11:30:45.844Z,1019.75
2017-07-12T11:31:45.849Z,1019.78
2017-07-12T11:32:45.856Z,1019.81
2017-07-12T11:33:45.857Z,1019.9
2017-07-12T11:34:45.865Z,1019.94
2017-07-12T11:35:45.871Z,1019.97
2017-07-12T11:36:45.875Z,1020.05
2017-07-12T11:37:45.881Z,1020.08
2017-07-12T11:38:45.889Z,1020.18
2017-07-12T11:39:45.895Z,1020.24
2017-07-12T11:40:45.899Z,1020.29
2017-07-12T11:41:45.904Z,1020.3
2017-07-12T11:42:45.909Z,1020.41
2017-07-12T11:43:45.913Z,1020.47
2017-07-12T11:44:45.918Z,1020.58
2017-07-12T11:45:45.919Z,1020.67
2017-07-12T11:46:45.931Z,1020.72
2017-07-12T11:47:45.933Z,1020.77
2017-07-12T11:48:45.940Z,1020.74
2017-07-12T11:49:45.940Z,1020.81
2017-07-12T11:50:45.945Z,1020.79
2017-07-12T11:51:45.952Z,1020.85
2017-07-12T11:52:45.956Z,1020.83
2017-07-12T11:53:45.960Z,1020.86
2017-07-12T11:54:45.961Z,1020.84
2017-07-12T11:55:45.970Z,1020.82
2017-07-12T11:56:45.974Z,1020.79
2017-07-12T11:57:45.972Z,1020.75
2017-07-12T11:58:45.982Z,1020.71
2017-07-12T11:59:45.983Z,1020.67
2017-07-12T12:00:45.987Z,1020.63
2017-07-12T12:01:45.987Z,1020.61
2017-07-12T12:02:45.996Z,1020.61
2017-07-12T12:03:46.000Z,1020.62
2017-07-12T12:04:46.007Z,1020.63
2017-07-12T12:05:46.002Z,1020.62
2017-07-12T12:06:46.009Z,1020.62
2017-07-12T12:07:46.017Z,1020.59
2017-07-12T12:08:46.016Z,1020.54
2017-07-12T12:09:46.018Z,1020.52
2017-07-12T12:10:46.023Z,1020.51
2017-07-12T12:11:46.024Z,1020.51
2017-07-12T12:12:46.029Z,1020.45
2017-07-12T12:13:46.032Z,1020.5
2017-07-12T12:14:46.056Z,1020.55
2017-07-12T12:15:46.042Z,1020.61
2017-07-12T12:16:46.045Z,1020.62
2017-07-12T12:17:46.046Z,1020.68
2017-07-12T12:18:46.053Z,1020.74
2017-07-12T12:19:46.057Z,1020.81
2017-07-12T12:20:46.057Z,1020.91
2017-07-12T12:21:46.059Z,1020.94
2017-07-12T12:22:46.063Z,1020.97
2017-07-12T12:23:46.070Z,1020.91
2017-07-12T12:24:46.073Z,1020.92
2017-07-12T12:25:46.075Z,1020.9
2017-07-12T12:26:46.077Z,1020.9
2017-07-12T12:27:46.083Z,1020.87
2017-07-12T12:28:46.089Z,1021.01
2017-07-12T12:29:46.090Z,1021.03
2017-07-12T12:30:46.091Z,1021.11
2017-07-12T12:31:46.096Z,1021.09
2017-07-12T12:32:46.095Z,1021.09
2017-07-12T12:33:46.102Z,1021.11
2017-07-12T12:34:46.105Z,1021.06
2017-07-12T12:35:46.110Z,1021.04
2017-07-12T12:36:46.113Z,1020.99
2017-07-12T12:37:46.113Z,1021.02
2017-07-12T12:38:46.114Z,1020.99
2017-07-12T12:39:46.122Z,1020.98
2017-07-12T12:40:46.124Z,1021
2017-07-12T12:41:46.127Z,1020.99
2017-07-12T12:42:46.126Z,1021.09
2017-07-12T12:43:46.135Z,1021.09
2017-07-12T12:44:46.133Z,1021.13
2017-07-12T12:45:46.138Z,1021.17
2017-07-12T12:46:46.141Z,1021.21
2017-07-12T12:47:46.144Z,1021.23
2017-07-12T12:48:46.146Z,1021.34
2017-07-12T12:49:46.151Z,1021.41
2017-07-12T12:50:46.148Z,1021.48
2017-07-12T12:51:46.156Z,1021.49
2017-07-12T12:52:46.155Z,1021.5
2017-07-12T12:53:46.157Z,1021.51
2017-07-12T12:54:46.164Z,1021.47
2017-07-12T12:55:46.165Z,1021.49
2017-07-12T12:56:46.163Z,1021.44
2017-07-12T12:57:46.165Z,1021.43
2017-07-12T12:58:46.172Z,1021.39
2017-07-12T12:59:46.171Z,1021.36
2017-07-12T13:00:46.174Z,1021.38
2017-07-12T13:01:46.178Z,1021.39
2017-07-12T13:02:46.181Z,1021.39
2017-07-12T13:03:46.184Z,1021.4
2017-07-12T13:04:46.185Z,1021.43
2017-07-12T13:05:46.187Z,1021.42
2017-07-12T13:06:46.189Z,1021.4
2017-07-12T13:07:46.190Z,1021.37
2017-07-12T13:08:46.189Z,1021.42
2017-07-12T13:09:46.196Z,1021.41
2017-07-12T13:10:46.201Z,1021.42
2017-07-12T13:11:46.199Z,1021.43
2017-07-12T13:12:46.201Z,1021.44
2017-07-12T13:13:46.201Z,1021.44
2017-07-12T13:14:46.206Z,1021.37
2017-07-12T13:15:46.203Z,1021.38
2017-07-12T13:16:46.211Z,1021.35
2017-07-12T13:17:46.217Z,1021.34
2017-07-12T13:18:46.212Z,1021.32
2017-07-12T13:19:46.212Z,1021.27
2017-07-12T13:20:46.220Z,1021.23
2017-07-12T13:21:46.216Z,1021.16
2017-07-12T13:22:46.221Z,1021.14
2017-07-12T13:23:46.223Z,1021.04
2017-07-12T13:24:46.223Z,1021.02
2017-07-12T13:25:46.221Z,1020.99
2017-07-12T13:26:46.225Z,1020.95
2017-07-12T13:27:46.226Z,1020.91
2017-07-12T13:28:46.229Z,1020.84
2017-07-12T13:29:46.228Z,1020.81